sensor_id;sensor_type;location;lat;lon;timestamp;pressure;altitude;pressure_sealevel;temperature;humidity
47706;BME280;33471;52.104;1.318;2023-03-22T00:00:07;100147.83;;;11.04;55.31
47706;BME280;33471;52.104;1.318;2023-03-22T00:02:34;100148.20;;;11.14;54.60
47706;BME280;33471;52.104;1.318;2023-03-22T00:05:01;100143.39;;;11.22;54.78
47706;BME280;33471;52.104;1.318;2023-03-22T00:07:28;100138.69;;;10.91;54.58
47706;BME280;33471;52.104;1.318;2023-03-22T00:09:56;100139.01;;;11.75;53.60
47706;BME280;33471;52.104;1.318;2023-03-22T00:12:23;100130.43;;;10.42;55.92
47706;BME280;33471;52.104;1.318;2023-03-22T00:14:50;100128.62;;;10.97;56.32
47706;BME280;33471;52.104;1.318;2023-03-22T00:17:17;100127.48;;;10.84;55.66
47706;BME280;33471;52.104;1.318;2023-03-22T00:19:44;100115.13;;;10.05;58.26
47706;BME280;33471;52.104;1.318;2023-03-22T00:22:11;100105.36;;;10.42;58.75
47706;BME280;33471;52.104;1.318;2023-03-22T00:24:38;100101.78;;;10.22;59.22
47706;BME280;33471;52.104;1.318;2023-03-22T00:27:06;100084.88;;;9.81;60.70
47706;BME280;33471;52.104;1.318;2023-03-22T00:29:32;100090.92;;;9.58;60.63
47706;BME280;33471;52.104;1.318;2023-03-22T00:31:59;100090.99;;;10.48;59.05
47706;BME280;33471;52.104;1.318;2023-03-22T00:34:30;100085.82;;;10.08;57.75
47706;BME280;33471;52.104;1.318;2023-03-22T00:36:56;100082.80;;;10.84;57.96
47706;BME280;33471;52.104;1.318;2023-03-22T00:39:23;100074.60;;;10.27;57.26
47706;BME280;33471;52.104;1.318;2023-03-22T00:41:51;100076.22;;;11.20;56.69
47706;BME280;33471;52.104;1.318;2023-03-22T00:44:18;100072.34;;;11.06;57.71
47706;BME280;33471;52.104;1.318;2023-03-22T00:46:45;100069.72;;;10.09;59.09
47706;BME280;33471;52.104;1.318;2023-03-22T00:49:12;100063.67;;;10.31;59.66
47706;BME280;33471;52.104;1.318;2023-03-22T00:51:39;100059.64;;;10.74;58.88
47706;BME280;33471;52.104;1.318;2023-03-22T00:54:06;100051.28;;;10.54;58.96
47706;BME280;33471;52.104;1.318;2023-03-22T00:56:33;100043.86;;;10.80;57.92
47706;BME280;33471;52.104;1.318;2023-03-22T00:59:00;100040.52;;;10.56;58.76
47706;BME280;33471;52.104;1.318;2023-03-22T01:01:27;100036.65;;;10.50;58.36
47706;BME280;33471;52.104;1.318;2023-03-22T01:03:54;100032.11;;;10.85;58.23
47706;BME280;33471;52.104;1.318;2023-03-22T01:06:22;100023.32;;;10.31;58.49
47706;BME280;33471;52.104;1.318;2023-03-22T01:08:49;100018.39;;;10.80;58.39
47706;BME280;33471;52.104;1.318;2023-03-22T01:11:17;100010.59;;;10.82;58.27
47706;BME280;33471;52.104;1.318;2023-03-22T01:13:44;100015.96;;;11.02;57.98
47706;BME280;33471;52.104;1.318;2023-03-22T01:16:11;100007.47;;;10.60;58.48
47706;BME280;33471;52.104;1.318;2023-03-22T01:18:38;99997.66;;;9.94;60.09
47706;BME280;33471;52.104;1.318;2023-03-22T01:21:07;99998.72;;;10.56;60.19
47706;BME280;33471;52.104;1.318;2023-03-22T01:23:35;99991.42;;;10.01;60.24
47706;BME280;33471;52.104;1.318;2023-03-22T01:26:03;99981.36;;;10.20;58.05
47706;BME280;33471;52.104;1.318;2023-03-22T01:28:30;99979.44;;;10.56;58.47
47706;BME280;33471;52.104;1.318;2023-03-22T01:31:00;99975.55;;;10.74;58.27
47706;BME280;33471;52.104;1.318;2023-03-22T01:33:30;99967.27;;;9.82;59.36
47706;BME280;33471;52.104;1.318;2023-03-22T01:35:57;99961.95;;;10.08;58.75
47706;BME280;33471;52.104;1.318;2023-03-22T01:38:24;99957.89;;;10.60;58.13
47706;BME280;33471;52.104;1.318;2023-03-22T01:40:51;99949.40;;;10.17;58.92
47706;BME280;33471;52.104;1.318;2023-03-22T01:43:19;99946.20;;;10.23;58.29
47706;BME280;33471;52.104;1.318;2023-03-22T01:45:47;99937.16;;;10.84;58.41
47706;BME280;33471;52.104;1.318;2023-03-22T01:48:19;99935.16;;;10.47;58.25
47706;BME280;33471;52.104;1.318;2023-03-22T01:50:53;99920.56;;;10.60;57.98
47706;BME280;33471;52.104;1.318;2023-03-22T01:53:23;99916.96;;;10.60;56.85
47706;BME280;33471;52.104;1.318;2023-03-22T01:55:52;99916.10;;;10.15;60.01
47706;BME280;33471;52.104;1.318;2023-03-22T01:58:20;99914.70;;;10.10;59.28
47706;BME280;33471;52.104;1.318;2023-03-22T02:00:50;99909.65;;;10.11;58.17
47706;BME280;33471;52.104;1.318;2023-03-22T02:03:24;99906.14;;;10.41;58.16
47706;BME280;33471;52.104;1.318;2023-03-22T02:05:55;99906.18;;;10.47;58.22
47706;BME280;33471;52.104;1.318;2023-03-22T02:08:23;99903.05;;;9.71;59.41
47706;BME280;33471;52.104;1.318;2023-03-22T02:10:50;99895.93;;;9.93;60.26
47706;BME280;33471;52.104;1.318;2023-03-22T02:13:27;99896.97;;;9.66;61.42
47706;BME280;33471;52.104;1.318;2023-03-22T02:16:07;99890.93;;;9.88;60.97
47706;BME280;33471;52.104;1.318;2023-03-22T02:18:49;99880.77;;;10.41;59.25
47706;BME280;33471;52.104;1.318;2023-03-22T02:21:48;99875.23;;;10.47;58.92
47706;BME280;33471;52.104;1.318;2023-03-22T02:25:12;99872.26;;;10.57;61.20
47706;BME280;33471;52.104;1.318;2023-03-22T02:28:04;99864.21;;;9.87;61.42
47706;BME280;33471;52.104;1.318;2023-03-22T02:31:20;99859.26;;;10.73;60.27
47706;BME280;33471;52.104;1.318;2023-03-22T02:34:10;99853.21;;;10.23;59.53
47706;BME280;33471;52.104;1.318;2023-03-22T02:36:58;99838.41;;;10.29;58.93
47706;BME280;33471;52.104;1.318;2023-03-22T02:39:34;99839.62;;;10.87;58.27
47706;BME280;33471;52.104;1.318;2023-03-22T02:42:15;99842.13;;;10.07;60.49
47706;BME280;33471;52.104;1.318;2023-03-22T02:44:54;99837.66;;;10.32;61.03
47706;BME280;33471;52.104;1.318;2023-03-22T02:47:33;99842.03;;;9.73;59.57
47706;BME280;33471;52.104;1.318;2023-03-22T02:50:08;99840.16;;;9.60;60.91
47706;BME280;33471;52.104;1.318;2023-03-22T02:52:39;99827.66;;;10.52;59.29
47706;BME280;33471;52.104;1.318;2023-03-22T02:55:12;99826.73;;;10.17;58.52
47706;BME280;33471;52.104;1.318;2023-03-22T02:57:45;99831.27;;;9.99;60.32
47706;BME280;33471;52.104;1.318;2023-03-22T03:00:15;99822.86;;;10.02;59.34
47706;BME280;33471;52.104;1.318;2023-03-22T03:02:48;99815.26;;;10.57;59.50
47706;BME280;33471;52.104;1.318;2023-03-22T03:05:18;99814.55;;;10.41;59.30
47706;BME280;33471;52.104;1.318;2023-03-22T03:07:51;99801.80;;;10.34;59.92
47706;BME280;33471;52.104;1.318;2023-03-22T03:10:21;99811.46;;;9.52;62.32
47706;BME280;33471;52.104;1.318;2023-03-22T03:12:48;99800.50;;;10.15;60.28
47706;BME280;33471;52.104;1.318;2023-03-22T03:15:18;99804.49;;;9.77;61.42
47706;BME280;33471;52.104;1.318;2023-03-22T03:17:58;99789.68;;;9.96;60.70
47706;BME280;33471;52.104;1.318;2023-03-22T03:20:39;99789.53;;;9.91;60.02
47706;BME280;33471;52.104;1.318;2023-03-22T03:23:16;99785.54;;;9.84;60.82
47706;BME280;33471;52.104;1.318;2023-03-22T03:25:56;99781.69;;;10.28;59.21
47706;BME280;33471;52.104;1.318;2023-03-22T03:28:30;99770.46;;;10.48;58.21
47706;BME280;33471;52.104;1.318;2023-03-22T03:31:08;99777.22;;;9.26;61.88
47706;BME280;33471;52.104;1.318;2023-03-22T03:33:47;99761.63;;;10.01;60.99
47706;BME280;33471;52.104;1.318;2023-03-22T03:36:16;99762.21;;;9.99;60.72
47706;BME280;33471;52.104;1.318;2023-03-22T03:38:48;99767.58;;;10.58;59.33
47706;BME280;33471;52.104;1.318;2023-03-22T03:41:19;99766.21;;;11.02;58.40
47706;BME280;33471;52.104;1.318;2023-03-22T03:43:48;99765.08;;;10.12;60.21
47706;BME280;33471;52.104;1.318;2023-03-22T03:46:16;99760.20;;;10.48;59.64
47706;BME280;33471;52.104;1.318;2023-03-22T03:48:46;99760.19;;;10.22;60.24
47706;BME280;33471;52.104;1.318;2023-03-22T03:51:15;99747.50;;;10.34;59.73
47706;BME280;33471;52.104;1.318;2023-03-22T03:53:42;99745.28;;;10.59;59.36
47706;BME280;33471;52.104;1.318;2023-03-22T03:56:09;99747.04;;;10.04;59.75
47706;BME280;33471;52.104;1.318;2023-03-22T03:58:36;99743.08;;;9.80;62.01
47706;BME280;33471;52.104;1.318;2023-03-22T04:01:04;99736.23;;;9.75;61.80
47706;BME280;33471;52.104;1.318;2023-03-22T04:03:31;99724.87;;;9.83;59.92
47706;BME280;33471;52.104;1.318;2023-03-22T04:05:58;99723.66;;;10.18;60.09
47706;BME280;33471;52.104;1.318;2023-03-22T04:08:26;99719.66;;;9.80;59.76
47706;BME280;33471;52.104;1.318;2023-03-22T04:10:53;99731.55;;;10.10;61.29
47706;BME280;33471;52.104;1.318;2023-03-22T04:13:21;99723.84;;;9.66;60.99
47706;BME280;33471;52.104;1.318;2023-03-22T04:15:52;99721.60;;;10.02;60.31
47706;BME280;33471;52.104;1.318;2023-03-22T04:18:20;99716.89;;;9.65;61.37
47706;BME280;33471;52.104;1.318;2023-03-22T04:20:48;99722.98;;;9.48;62.01
47706;BME280;33471;52.104;1.318;2023-03-22T04:23:15;99722.31;;;10.30;60.19
47706;BME280;33471;52.104;1.318;2023-03-22T04:25:42;99712.62;;;10.85;57.61
47706;BME280;33471;52.104;1.318;2023-03-22T04:28:09;99713.93;;;10.19;59.60
47706;BME280;33471;52.104;1.318;2023-03-22T04:30:36;99714.62;;;10.64;59.12
47706;BME280;33471;52.104;1.318;2023-03-22T04:33:04;99705.77;;;10.23;59.35
47706;BME280;33471;52.104;1.318;2023-03-22T04:35:32;99715.52;;;10.14;58.72
47706;BME280;33471;52.104;1.318;2023-03-22T04:37:59;99705.82;;;10.05;58.70
47706;BME280;33471;52.104;1.318;2023-03-22T04:40:27;99704.90;;;10.76;57.46
47706;BME280;33471;52.104;1.318;2023-03-22T04:42:54;99694.63;;;11.29;56.06
47706;BME280;33471;52.104;1.318;2023-03-22T04:45:22;99698.70;;;10.42;57.32
47706;BME280;33471;52.104;1.318;2023-03-22T04:47:50;99689.65;;;10.42;58.85
47706;BME280;33471;52.104;1.318;2023-03-22T04:50:17;99698.18;;;10.08;59.55
47706;BME280;33471;52.104;1.318;2023-03-22T04:52:44;99700.43;;;9.94;59.24
47706;BME280;33471;52.104;1.318;2023-03-22T04:55:11;99694.29;;;10.34;57.90
47706;BME280;33471;52.104;1.318;2023-03-22T04:57:38;99694.13;;;9.76;59.33
47706;BME280;33471;52.104;1.318;2023-03-22T05:00:06;99687.49;;;10.22;59.90
47706;BME280;33471;52.104;1.318;2023-03-22T05:02:34;99696.84;;;9.04;62.72
47706;BME280;33471;52.104;1.318;2023-03-22T05:05:02;99680.85;;;9.61;61.48
47706;BME280;33471;52.104;1.318;2023-03-22T05:07:28;99685.42;;;9.37;62.51
47706;BME280;33471;52.104;1.318;2023-03-22T05:09:55;99691.13;;;9.16;63.58
47706;BME280;33471;52.104;1.318;2023-03-22T05:12:22;99687.07;;;9.93;60.58
47706;BME280;33471;52.104;1.318;2023-03-22T05:14:50;99683.83;;;9.73;60.82
47706;BME280;33471;52.104;1.318;2023-03-22T05:17:17;99679.36;;;9.93;61.29
47706;BME280;33471;52.104;1.318;2023-03-22T05:19:44;99680.05;;;10.17;59.87
47706;BME280;33471;52.104;1.318;2023-03-22T05:22:11;99681.14;;;9.89;61.74
47706;BME280;33471;52.104;1.318;2023-03-22T05:24:38;99691.38;;;9.67;61.56
47706;BME280;33471;52.104;1.318;2023-03-22T05:27:05;99689.72;;;9.44;62.79
47706;BME280;33471;52.104;1.318;2023-03-22T05:29:32;99693.09;;;9.50;62.53
47706;BME280;33471;52.104;1.318;2023-03-22T05:31:59;99700.89;;;8.90;64.59
47706;BME280;33471;52.104;1.318;2023-03-22T05:34:26;99696.25;;;8.91;63.47
47706;BME280;33471;52.104;1.318;2023-03-22T05:36:53;99694.57;;;9.50;62.20
47706;BME280;33471;52.104;1.318;2023-03-22T05:39:21;99692.26;;;10.32;61.08
47706;BME280;33471;52.104;1.318;2023-03-22T05:41:48;99704.99;;;10.22;60.85
47706;BME280;33471;52.104;1.318;2023-03-22T05:44:15;99689.67;;;10.78;59.53
47706;BME280;33471;52.104;1.318;2023-03-22T05:46:42;99697.89;;;10.37;61.63
47706;BME280;33471;52.104;1.318;2023-03-22T05:49:09;99696.60;;;9.49;64.57
47706;BME280;33471;52.104;1.318;2023-03-22T05:51:36;99702.97;;;9.62;64.28
47706;BME280;33471;52.104;1.318;2023-03-22T05:54:03;99699.80;;;9.85;63.04
47706;BME280;33471;52.104;1.318;2023-03-22T05:56:30;99702.01;;;9.94;62.77
47706;BME280;33471;52.104;1.318;2023-03-22T05:58:57;99711.31;;;9.07;65.11
47706;BME280;33471;52.104;1.318;2023-03-22T06:01:25;99706.53;;;9.54;64.39
47706;BME280;33471;52.104;1.318;2023-03-22T06:03:52;99695.99;;;9.65;63.78
47706;BME280;33471;52.104;1.318;2023-03-22T06:06:20;99690.08;;;9.92;63.07
47706;BME280;33471;52.104;1.318;2023-03-22T06:08:47;99699.42;;;9.06;66.29
47706;BME280;33471;52.104;1.318;2023-03-22T06:11:15;99702.19;;;9.52;65.15
47706;BME280;33471;52.104;1.318;2023-03-22T06:13:41;99689.95;;;9.87;64.73
47706;BME280;33471;52.104;1.318;2023-03-22T06:16:09;99696.11;;;9.98;64.47
47706;BME280;33471;52.104;1.318;2023-03-22T06:18:37;99696.64;;;9.70;64.93
47706;BME280;33471;52.104;1.318;2023-03-22T06:21:05;99709.58;;;9.20;66.60
47706;BME280;33471;52.104;1.318;2023-03-22T06:23:31;99705.74;;;10.06;64.54
47706;BME280;33471;52.104;1.318;2023-03-22T06:25:59;99711.46;;;9.80;65.40
47706;BME280;33471;52.104;1.318;2023-03-22T06:28:26;99720.20;;;8.81;67.60
47706;BME280;33471;52.104;1.318;2023-03-22T06:30:53;99719.00;;;9.46;66.74
47706;BME280;33471;52.104;1.318;2023-03-22T06:33:20;99709.32;;;9.71;64.46
47706;BME280;33471;52.104;1.318;2023-03-22T06:35:48;99710.83;;;10.45;62.15
47706;BME280;33471;52.104;1.318;2023-03-22T06:38:15;99713.04;;;10.15;62.78
47706;BME280;33471;52.104;1.318;2023-03-22T06:40:42;99719.32;;;9.48;65.15
47706;BME280;33471;52.104;1.318;2023-03-22T06:43:09;99711.16;;;10.14;64.53
47706;BME280;33471;52.104;1.318;2023-03-22T06:45:36;99712.31;;;10.01;65.13
47706;BME280;33471;52.104;1.318;2023-03-22T06:48:04;99712.75;;;9.96;65.25
47706;BME280;33471;52.104;1.318;2023-03-22T06:50:31;99707.53;;;9.49;65.01
47706;BME280;33471;52.104;1.318;2023-03-22T06:52:58;99717.10;;;9.57;65.99
47706;BME280;33471;52.104;1.318;2023-03-22T06:55:25;99707.96;;;9.65;65.11
47706;BME280;33471;52.104;1.318;2023-03-22T06:57:52;99706.30;;;11.20;61.76
47706;BME280;33471;52.104;1.318;2023-03-22T07:00:21;99707.10;;;9.75;65.34
47706;BME280;33471;52.104;1.318;2023-03-22T07:02:49;99705.96;;;10.39;63.43
47706;BME280;33471;52.104;1.318;2023-03-22T07:05:16;99706.40;;;9.88;64.19
47706;BME280;33471;52.104;1.318;2023-03-22T07:07:43;99700.12;;;9.75;65.08
47706;BME280;33471;52.104;1.318;2023-03-22T07:10:10;99705.67;;;9.40;67.02
47706;BME280;33471;52.104;1.318;2023-03-22T07:12:37;99693.04;;;9.54;66.04
47706;BME280;33471;52.104;1.318;2023-03-22T07:15:06;99683.05;;;10.13;64.77
47706;BME280;33471;52.104;1.318;2023-03-22T07:17:33;99685.31;;;10.03;64.89
47706;BME280;33471;52.104;1.318;2023-03-22T07:20:00;99691.04;;;10.25;64.65
47706;BME280;33471;52.104;1.318;2023-03-22T07:22:28;99688.53;;;9.66;65.57
47706;BME280;33471;52.104;1.318;2023-03-22T07:24:55;99683.16;;;10.13;64.95
47706;BME280;33471;52.104;1.318;2023-03-22T07:27:23;99686.01;;;9.83;65.25
47706;BME280;33471;52.104;1.318;2023-03-22T07:29:51;99689.48;;;9.52;66.64
47706;BME280;33471;52.104;1.318;2023-03-22T07:32:19;99698.82;;;9.28;66.61
47706;BME280;33471;52.104;1.318;2023-03-22T07:34:46;99701.70;;;9.91;63.99
47706;BME280;33471;52.104;1.318;2023-03-22T07:37:13;99702.22;;;10.30;64.79
47706;BME280;33471;52.104;1.318;2023-03-22T07:39:40;99692.54;;;10.05;64.80
47706;BME280;33471;52.104;1.318;2023-03-22T07:42:07;99688.78;;;10.98;62.18
47706;BME280;33471;52.104;1.318;2023-03-22T07:44:35;99681.65;;;10.32;63.78
47706;BME280;33471;52.104;1.318;2023-03-22T07:47:02;99686.85;;;10.68;63.33
47706;BME280;33471;52.104;1.318;2023-03-22T07:49:30;99687.46;;;10.37;62.60
47706;BME280;33471;52.104;1.318;2023-03-22T07:51:57;99686.32;;;11.48;59.82
47706;BME280;33471;52.104;1.318;2023-03-22T07:54:26;99688.15;;;9.99;63.32
47706;BME280;33471;52.104;1.318;2023-03-22T07:56:53;99693.14;;;10.94;62.87
47706;BME280;33471;52.104;1.318;2023-03-22T07:59:21;99685.62;;;11.19;61.94
47706;BME280;33471;52.104;1.318;2023-03-22T08:01:48;99674.89;;;11.62;60.36
47706;BME280;33471;52.104;1.318;2023-03-22T08:04:15;99673.00;;;10.75;62.09
47706;BME280;33471;52.104;1.318;2023-03-22T08:06:42;99684.34;;;9.95;64.73
47706;BME280;33471;52.104;1.318;2023-03-22T08:09:09;99670.10;;;10.40;64.02
47706;BME280;33471;52.104;1.318;2023-03-22T08:11:37;99657.02;;;10.98;60.79
47706;BME280;33471;52.104;1.318;2023-03-22T08:14:04;99657.48;;;11.03;61.51
47706;BME280;33471;52.104;1.318;2023-03-22T08:16:31;99688.25;;;10.42;62.24
47706;BME280;33471;52.104;1.318;2023-03-22T08:18:58;99674.09;;;10.39;63.00
47706;BME280;33471;52.104;1.318;2023-03-22T08:21:26;99643.46;;;10.60;61.60
47706;BME280;33471;52.104;1.318;2023-03-22T08:23:53;99681.46;;;10.47;63.05
47706;BME280;33471;52.104;1.318;2023-03-22T08:26:21;99708.68;;;9.85;65.32
47706;BME280;33471;52.104;1.318;2023-03-22T08:28:48;99705.63;;;9.62;65.33
47706;BME280;33471;52.104;1.318;2023-03-22T08:31:16;99719.88;;;10.59;63.59
47706;BME280;33471;52.104;1.318;2023-03-22T08:33:43;99720.43;;;10.60;62.35
47706;BME280;33471;52.104;1.318;2023-03-22T08:36:14;99737.14;;;10.87;62.21
47706;BME280;33471;52.104;1.318;2023-03-22T08:38:41;99745.30;;;10.85;60.14
47706;BME280;33471;52.104;1.318;2023-03-22T08:41:08;99741.20;;;10.28;64.23
47706;BME280;33471;52.104;1.318;2023-03-22T08:43:35;99743.70;;;9.96;65.01
47706;BME280;33471;52.104;1.318;2023-03-22T08:46:03;99746.54;;;10.30;64.15
47706;BME280;33471;52.104;1.318;2023-03-22T08:48:30;99751.51;;;10.67;63.70
47706;BME280;33471;52.104;1.318;2023-03-22T08:50:58;99739.44;;;9.89;66.37
47706;BME280;33471;52.104;1.318;2023-03-22T08:53:25;99739.73;;;10.15;64.57
47706;BME280;33471;52.104;1.318;2023-03-22T08:55:52;99736.74;;;10.89;62.94
47706;BME280;33471;52.104;1.318;2023-03-22T08:58:20;99720.56;;;10.82;61.85
47706;BME280;33471;52.104;1.318;2023-03-22T09:00:47;99724.00;;;10.80;62.99
47706;BME280;33471;52.104;1.318;2023-03-22T09:03:15;99722.84;;;11.38;60.21
47706;BME280;33471;52.104;1.318;2023-03-22T09:05:43;99729.10;;;10.56;64.39
47706;BME280;33471;52.104;1.318;2023-03-22T09:08:10;99723.98;;;10.82;63.23
47706;BME280;33471;52.104;1.318;2023-03-22T09:10:37;99722.05;;;10.69;62.82
47706;BME280;33471;52.104;1.318;2023-03-22T09:13:05;99715.09;;;10.61;63.07
47706;BME280;33471;52.104;1.318;2023-03-22T09:15:32;99706.27;;;11.70;60.15
47706;BME280;33471;52.104;1.318;2023-03-22T09:17:59;99707.37;;;11.84;59.72
47706;BME280;33471;52.104;1.318;2023-03-22T09:20:26;99697.56;;;10.77;62.30
47706;BME280;33471;52.104;1.318;2023-03-22T09:22:53;99711.51;;;11.30;60.73
47706;BME280;33471;52.104;1.318;2023-03-22T09:25:21;99694.67;;;11.60;60.29
47706;BME280;33471;52.104;1.318;2023-03-22T09:27:48;99696.07;;;11.55;60.60
47706;BME280;33471;52.104;1.318;2023-03-22T09:30:15;99703.96;;;12.53;56.32
47706;BME280;33471;52.104;1.318;2023-03-22T09:32:42;99702.87;;;11.25;61.21
47706;BME280;33471;52.104;1.318;2023-03-22T09:35:09;99708.41;;;11.03;62.04
47706;BME280;33471;52.104;1.318;2023-03-22T09:37:36;99711.46;;;11.56;61.46
47706;BME280;33471;52.104;1.318;2023-03-22T09:40:05;99709.00;;;11.21;61.06
47706;BME280;33471;52.104;1.318;2023-03-22T09:42:35;99711.65;;;11.78;60.39
47706;BME280;33471;52.104;1.318;2023-03-22T09:45:07;99715.94;;;11.11;62.05
47706;BME280;33471;52.104;1.318;2023-03-22T09:47:40;99724.40;;;11.65;59.88
47706;BME280;33471;52.104;1.318;2023-03-22T09:50:12;99714.60;;;11.39;60.33
47706;BME280;33471;52.104;1.318;2023-03-22T09:52:43;99712.44;;;12.00;58.73
47706;BME280;33471;52.104;1.318;2023-03-22T09:55:17;99717.90;;;12.45;58.76
47706;BME280;33471;52.104;1.318;2023-03-22T09:57:48;99720.99;;;12.66;58.36
47706;BME280;33471;52.104;1.318;2023-03-22T10:00:23;99713.45;;;12.33;59.12
47706;BME280;33471;52.104;1.318;2023-03-22T10:02:59;99729.30;;;12.42;58.78
47706;BME280;33471;52.104;1.318;2023-03-22T10:05:36;99725.16;;;11.48;60.96
47706;BME280;33471;52.104;1.318;2023-03-22T10:08:14;99715.67;;;11.51;61.29
47706;BME280;33471;52.104;1.318;2023-03-22T10:10:47;99725.00;;;11.83;60.94
47706;BME280;33471;52.104;1.318;2023-03-22T10:13:18;99716.23;;;11.53;61.21
47706;BME280;33471;52.104;1.318;2023-03-22T10:15:50;99716.31;;;11.85;59.75
47706;BME280;33471;52.104;1.318;2023-03-22T10:18:22;99717.38;;;12.75;57.91
47706;BME280;33471;52.104;1.318;2023-03-22T10:20:56;99720.21;;;12.83;56.78
47706;BME280;33471;52.104;1.318;2023-03-22T10:23:28;99717.75;;;12.22;58.63
47706;BME280;33471;52.104;1.318;2023-03-22T10:25:59;99719.68;;;12.12;59.62
47706;BME280;33471;52.104;1.318;2023-03-22T10:28:33;99728.79;;;12.28;59.04
47706;BME280;33471;52.104;1.318;2023-03-22T10:31:03;99740.29;;;12.68;57.21
47706;BME280;33471;52.104;1.318;2023-03-22T10:33:37;99741.71;;;13.07;56.79
47706;BME280;33471;52.104;1.318;2023-03-22T10:36:09;99740.38;;;13.01;57.58
47706;BME280;33471;52.104;1.318;2023-03-22T10:38:44;99732.67;;;12.85;57.72
47706;BME280;33471;52.104;1.318;2023-03-22T10:41:14;99727.92;;;12.44;59.43
47706;BME280;33471;52.104;1.318;2023-03-22T10:43:43;99732.59;;;12.17;60.08
47706;BME280;33471;52.104;1.318;2023-03-22T10:46:15;99732.35;;;13.31;57.18
47706;BME280;33471;52.104;1.318;2023-03-22T10:48:46;99722.88;;;12.60;59.14
47706;BME280;33471;52.104;1.318;2023-03-22T10:51:22;99732.19;;;13.21;57.27
47706;BME280;33471;52.104;1.318;2023-03-22T10:53:54;99725.30;;;12.30;60.59
47706;BME280;33471;52.104;1.318;2023-03-22T10:56:22;99738.99;;;12.04;61.19
47706;BME280;33471;52.104;1.318;2023-03-22T10:58:50;99739.93;;;12.57;60.56
47706;BME280;33471;52.104;1.318;2023-03-22T11:01:25;99739.66;;;12.91;59.08
47706;BME280;33471;52.104;1.318;2023-03-22T11:03:57;99740.73;;;13.09;58.90
47706;BME280;33471;52.104;1.318;2023-03-22T11:06:27;99741.26;;;12.82;57.82
47706;BME280;33471;52.104;1.318;2023-03-22T11:08:58;99741.12;;;13.24;58.07
47706;BME280;33471;52.104;1.318;2023-03-22T11:11:26;99736.28;;;12.22;58.64
47706;BME280;33471;52.104;1.318;2023-03-22T11:13:59;99738.88;;;12.41;59.93
47706;BME280;33471;52.104;1.318;2023-03-22T11:16:28;99747.73;;;12.88;58.60
47706;BME280;33471;52.104;1.318;2023-03-22T11:18:57;99754.56;;;13.04;58.17
47706;BME280;33471;52.104;1.318;2023-03-22T11:21:29;99751.09;;;13.69;56.71
47706;BME280;33471;52.104;1.318;2023-03-22T11:24:00;99755.99;;;14.00;56.20
47706;BME280;33471;52.104;1.318;2023-03-22T11:26:31;99756.87;;;12.89;58.00
47706;BME280;33471;52.104;1.318;2023-03-22T11:29:04;99751.37;;;12.86;58.92
47706;BME280;33471;52.104;1.318;2023-03-22T11:31:51;99754.56;;;12.96;58.66
47706;BME280;33471;52.104;1.318;2023-03-22T11:34:22;99753.10;;;12.50;59.66
47706;BME280;33471;52.104;1.318;2023-03-22T11:36:49;99756.91;;;13.42;57.28
47706;BME280;33471;52.104;1.318;2023-03-22T11:39:16;99753.48;;;13.14;57.28
47706;BME280;33471;52.104;1.318;2023-03-22T11:41:44;99744.04;;;13.64;56.86
47706;BME280;33471;52.104;1.318;2023-03-22T11:44:14;99746.51;;;13.42;57.88
47706;BME280;33471;52.104;1.318;2023-03-22T11:46:48;99745.94;;;14.05;55.94
47706;BME280;33471;52.104;1.318;2023-03-22T11:49:17;99750.21;;;13.27;58.44
47706;BME280;33471;52.104;1.318;2023-03-22T11:51:44;99742.39;;;13.43;56.88
47706;BME280;33471;52.104;1.318;2023-03-22T11:54:24;99746.03;;;13.32;57.18
47706;BME280;33471;52.104;1.318;2023-03-22T11:56:54;99736.62;;;13.74;56.55
47706;BME280;33471;52.104;1.318;2023-03-22T11:59:24;99738.88;;;13.65;55.37
47706;BME280;33471;52.104;1.318;2023-03-22T12:01:59;99746.99;;;14.31;54.34
47706;BME280;33471;52.104;1.318;2023-03-22T12:04:32;99745.87;;;13.46;57.00
47706;BME280;33471;52.104;1.318;2023-03-22T12:07:03;99735.88;;;14.39;55.36
47706;BME280;33471;52.104;1.318;2023-03-22T12:09:38;99722.33;;;13.98;55.12
47706;BME280;33471;52.104;1.318;2023-03-22T12:12:13;99724.93;;;14.64;54.25
47706;BME280;33471;52.104;1.318;2023-03-22T12:14:47;99719.08;;;14.50;54.32
47706;BME280;33471;52.104;1.318;2023-03-22T12:17:25;99715.26;;;13.73;55.91
47706;BME280;33471;52.104;1.318;2023-03-22T12:20:02;99713.44;;;14.95;53.82
47706;BME280;33471;52.104;1.318;2023-03-22T12:22:32;99705.97;;;14.64;52.63
47706;BME280;33471;52.104;1.318;2023-03-22T12:24:59;99702.75;;;15.67;50.13
47706;BME280;33471;52.104;1.318;2023-03-22T12:27:31;99698.03;;;15.37;51.70
47706;BME280;33471;52.104;1.318;2023-03-22T12:30:02;99696.64;;;16.01;51.12
47706;BME280;33471;52.104;1.318;2023-03-22T12:32:34;99688.09;;;14.51;54.21
47706;BME280;33471;52.104;1.318;2023-03-22T12:35:03;99695.06;;;14.67;55.47
47706;BME280;33471;52.104;1.318;2023-03-22T12:37:33;99679.86;;;14.15;55.68
47706;BME280;33471;52.104;1.318;2023-03-22T12:40:05;99693.09;;;14.41;54.98
47706;BME280;33471;52.104;1.318;2023-03-22T12:42:47;99694.51;;;14.43;55.59
47706;BME280;33471;52.104;1.318;2023-03-22T12:45:20;99692.44;;;14.43;55.58
47706;BME280;33471;52.104;1.318;2023-03-22T12:47:51;99695.00;;;15.09;53.27
47706;BME280;33471;52.104;1.318;2023-03-22T12:50:24;99689.38;;;15.55;51.98
47706;BME280;33471;52.104;1.318;2023-03-22T12:52:56;99688.77;;;15.45;53.03
47706;BME280;33471;52.104;1.318;2023-03-22T12:55:26;99682.39;;;14.98;51.32
47706;BME280;33471;52.104;1.318;2023-03-22T12:57:54;99685.56;;;14.81;52.99
47706;BME280;33471;52.104;1.318;2023-03-22T13:00:27;99678.35;;;15.02;52.47
47706;BME280;33471;52.104;1.318;2023-03-22T13:02:59;99676.75;;;15.19;52.01
47706;BME280;33471;52.104;1.318;2023-03-22T13:05:29;99668.07;;;14.73;52.93
47706;BME280;33471;52.104;1.318;2023-03-22T13:07:58;99667.62;;;15.39;51.57
47706;BME280;33471;52.104;1.318;2023-03-22T13:11:00;99658.80;;;14.97;55.01
47706;BME280;33471;52.104;1.318;2023-03-22T13:13:40;99655.98;;;15.07;52.63
47706;BME280;33471;52.104;1.318;2023-03-22T13:16:19;99666.96;;;15.64;51.70